LNR023 SBSL-GVAC
Flight info
| Callsign | LNR023 |
|---|---|
| Flight time | 3h 54m |
| Altitude | 33000 |
| Route | ESLEB UM799 EGBIR DCT 10N030W/N0455F350 DCT POMAT DCT BULVO AMDER1F |
| Aircraft | B738/M-SDE2E3FGHIRWXY/LB1 |
Departure
| Time | 2026-04-17 07:06 |
|---|---|
| Airport | Marechal Cunha Machado International Airport (SBSL) |
Arrival
| Time | 2026-04-17 11:00 |
|---|---|
| Airport | Amílcar Cabral International Airport (GVAC) |
| Time | Latitude | Longitude | Altitude | Speed | Heading |
|---|---|---|---|---|---|
| 2026-04-17 06:49 | -2.58410 | -44.23557 | 157 ft | 0 kts | 341° |
| 2026-04-17 07:00 | -2.58429 | -44.23552 | 157 ft | 4 kts | 2° |
| 2026-04-17 07:00 | -2.58453 | -44.23559 | 157 ft | 4 kts | 33° |
| 2026-04-17 07:01 | -2.58465 | -44.23567 | 157 ft | 1 kts | 32° |
| 2026-04-17 07:01 | -2.58466 | -44.23567 | 157 ft | 0 kts | 32° |
| 2026-04-17 07:03 | -2.58458 | -44.23544 | 157 ft | 8 kts | 79° |
| 2026-04-17 07:03 | -2.58445 | -44.23476 | 157 ft | 12 kts | 83° |
| 2026-04-17 07:03 | -2.58473 | -44.23397 | 157 ft | 12 kts | 107° |
| 2026-04-17 07:03 | -2.58438 | -44.23327 | 155 ft | 12 kts | 40° |
| 2026-04-17 07:04 | -2.58366 | -44.23269 | 152 ft | 16 kts | 38° |
| 2026-04-17 07:04 | -2.58275 | -44.23196 | 148 ft | 17 kts | 39° |
| 2026-04-17 07:04 | -2.58183 | -44.23121 | 145 ft | 17 kts | 39° |
| 2026-04-17 07:04 | -2.58087 | -44.23062 | 142 ft | 16 kts | 9° |
| 2026-04-17 07:05 | -2.58034 | -44.23021 | 140 ft | 6 kts | 116° |
| 2026-04-17 07:05 | -2.58073 | -44.23032 | 141 ft | 6 kts | 219° |
| 2026-04-17 07:05 | -2.58077 | -44.23035 | 141 ft | 0 kts | 219° |
| 2026-04-17 07:05 | -2.58242 | -44.23168 | 147 ft | 68 kts | 219° |
| 2026-04-17 07:06 | -2.58789 | -44.23610 | 160 ft | 133 kts | 219° |
| 2026-04-17 07:06 | -2.59645 | -44.24282 | 368 ft | 168 kts | 216° |
| 2026-04-17 07:06 | -2.60580 | -44.25023 | 948 ft | 179 kts | 217° |
| 2026-04-17 07:06 | -2.61580 | -44.25833 | 1571 ft | 188 kts | 217° |
| 2026-04-17 07:07 | -2.62621 | -44.26657 | 2173 ft | 196 kts | 216° |
| 2026-04-17 07:07 | -2.63719 | -44.27534 | 2527 ft | 214 kts | 214° |
| 2026-04-17 07:07 | -2.65114 | -44.28157 | 2716 ft | 229 kts | 180° |
| 2026-04-17 07:07 | -2.66635 | -44.27776 | 2981 ft | 233 kts | 139° |
| 2026-04-17 07:08 | -2.67573 | -44.26483 | 3409 ft | 234 kts | 107° |
| 2026-04-17 07:08 | -2.67733 | -44.24809 | 3718 ft | 252 kts | 81° |
| 2026-04-17 07:08 | -2.67168 | -44.23146 | 4357 ft | 259 kts | 63° |
| 2026-04-17 07:08 | -2.66273 | -44.21575 | 5090 ft | 262 kts | 61° |
| 2026-04-17 07:09 | -2.65332 | -44.19995 | 5781 ft | 266 kts | 60° |
| 2026-04-17 07:09 | -2.64703 | -44.18938 | 6236 ft | 268 kts | 61° |
| 2026-04-17 07:09 | -2.63748 | -44.17316 | 6888 ft | 271 kts | 61° |
| 2026-04-17 07:09 | -2.62795 | -44.15677 | 7546 ft | 274 kts | 61° |
| 2026-04-17 07:10 | -2.61837 | -44.14012 | 8195 ft | 277 kts | 61° |
| 2026-04-17 07:10 | -2.60883 | -44.12342 | 8851 ft | 280 kts | 62° |
| 2026-04-17 07:10 | -2.59914 | -44.10636 | 9499 ft | 284 kts | 62° |
| 2026-04-17 07:10 | -2.58935 | -44.08904 | 10080 ft | 289 kts | 62° |
| 2026-04-17 07:11 | -2.57910 | -44.07085 | 10239 ft | 310 kts | 62° |
| 2026-04-17 07:11 | -2.56819 | -44.05145 | 10403 ft | 330 kts | 61° |
| 2026-04-17 07:11 | -2.55654 | -44.03102 | 10664 ft | 343 kts | 60° |
| 2026-04-17 07:11 | -2.54397 | -44.01053 | 11160 ft | 347 kts | 59° |
| 2026-04-17 07:12 | -2.53128 | -43.98979 | 11751 ft | 349 kts | 59° |
| 2026-04-17 07:12 | -2.51898 | -43.96907 | 12316 ft | 352 kts | 60° |
| 2026-04-17 07:12 | -2.50671 | -43.94780 | 12870 ft | 354 kts | 60° |
| 2026-04-17 07:12 | -2.49452 | -43.92619 | 13422 ft | 357 kts | 61° |
| 2026-04-17 07:13 | -2.48236 | -43.90435 | 13924 ft | 360 kts | 61° |
| 2026-04-17 07:13 | -2.47021 | -43.88235 | 14408 ft | 363 kts | 62° |
| 2026-04-17 07:13 | -2.45811 | -43.86038 | 14875 ft | 365 kts | 62° |
| 2026-04-17 07:13 | -2.44581 | -43.83799 | 15348 ft | 368 kts | 62° |
| 2026-04-17 07:14 | -2.43343 | -43.81544 | 15816 ft | 370 kts | 62° |
| 2026-04-17 07:14 | -2.42095 | -43.79273 | 16266 ft | 373 kts | 62° |
| 2026-04-17 07:14 | -2.40855 | -43.77016 | 16729 ft | 376 kts | 62° |
| 2026-04-17 07:14 | -2.39592 | -43.74717 | 17168 ft | 379 kts | 62° |
| 2026-04-17 07:15 | -2.38318 | -43.72397 | 17608 ft | 381 kts | 62° |
| 2026-04-17 07:15 | -2.37037 | -43.70067 | 18052 ft | 384 kts | 62° |
| 2026-04-17 07:15 | -2.35748 | -43.67721 | 18423 ft | 386 kts | 62° |
| 2026-04-17 07:15 | -2.34445 | -43.65349 | 18781 ft | 389 kts | 62° |
| 2026-04-17 07:16 | -2.33081 | -43.63004 | 19132 ft | 392 kts | 54° |
| 2026-04-17 07:16 | -2.31168 | -43.61047 | 19456 ft | 396 kts | 41° |
| 2026-04-17 07:16 | -2.29081 | -43.59274 | 19822 ft | 398 kts | 41° |
| 2026-04-17 07:16 | -2.26961 | -43.57465 | 20159 ft | 401 kts | 42° |
| 2026-04-17 07:17 | -2.24838 | -43.55639 | 20471 ft | 404 kts | 42° |
| 2026-04-17 07:17 | -2.22707 | -43.53794 | 20817 ft | 406 kts | 42° |
| 2026-04-17 07:17 | -2.18412 | -43.50051 | 21486 ft | 411 kts | 43° |
| 2026-04-17 07:18 | -2.16278 | -43.48185 | 21794 ft | 413 kts | 43° |
| 2026-04-17 07:18 | -2.14093 | -43.46274 | 22103 ft | 416 kts | 42° |
| 2026-04-17 07:18 | -2.11911 | -43.44364 | 22419 ft | 418 kts | 43° |
| 2026-04-17 07:18 | -2.09712 | -43.42439 | 22731 ft | 420 kts | 43° |
| 2026-04-17 07:19 | -2.07501 | -43.40504 | 23024 ft | 423 kts | 43° |
| 2026-04-17 07:19 | -2.05311 | -43.38588 | 23295 ft | 425 kts | 42° |
| 2026-04-17 07:19 | -2.03076 | -43.36633 | 23555 ft | 427 kts | 42° |
| 2026-04-17 07:19 | -2.00822 | -43.34660 | 23790 ft | 429 kts | 42° |
| 2026-04-17 07:20 | -1.98579 | -43.32698 | 24053 ft | 430 kts | 42° |
| 2026-04-17 07:20 | -1.96317 | -43.30720 | 24276 ft | 432 kts | 43° |
| 2026-04-17 07:20 | -1.94067 | -43.28751 | 24523 ft | 433 kts | 43° |
| 2026-04-17 07:20 | -1.91788 | -43.26756 | 24747 ft | 435 kts | 43° |
| 2026-04-17 07:21 | -1.89504 | -43.24759 | 24996 ft | 437 kts | 43° |
| 2026-04-17 07:21 | -1.87206 | -43.22750 | 25214 ft | 439 kts | 43° |
| 2026-04-17 07:21 | -1.84906 | -43.20740 | 25461 ft | 440 kts | 42° |
| 2026-04-17 07:21 | -1.82599 | -43.18722 | 25691 ft | 441 kts | 43° |
| 2026-04-17 07:22 | -1.80287 | -43.16700 | 25923 ft | 442 kts | 41° |
| 2026-04-17 07:22 | -1.77987 | -43.14689 | 26099 ft | 445 kts | 41° |
| 2026-04-17 07:22 | -1.75655 | -43.12651 | 26349 ft | 446 kts | 41° |
| 2026-04-17 07:22 | -1.73316 | -43.10604 | 26535 ft | 448 kts | 42° |
| 2026-04-17 07:23 | -1.70963 | -43.08545 | 26737 ft | 450 kts | 42° |
| 2026-04-17 07:23 | -1.68602 | -43.06481 | 26906 ft | 452 kts | 42° |
| 2026-04-17 07:23 | -1.66234 | -43.04410 | 27146 ft | 452 kts | 42° |
| 2026-04-17 07:23 | -1.63869 | -43.02342 | 27451 ft | 451 kts | 42° |
| 2026-04-17 07:24 | -1.61496 | -43.00267 | 27602 ft | 454 kts | 42° |
| 2026-04-17 07:24 | -1.59183 | -42.98247 | 27748 ft | 456 kts | 41° |
| 2026-04-17 07:24 | -1.56789 | -42.96151 | 27939 ft | 457 kts | 42° |
| 2026-04-17 07:24 | -1.54418 | -42.94077 | 28141 ft | 458 kts | 43° |
| 2026-04-17 07:25 | -1.52012 | -42.91972 | 28332 ft | 459 kts | 41° |
| 2026-04-17 07:25 | -1.49601 | -42.89864 | 28491 ft | 461 kts | 42° |
| 2026-04-17 07:25 | -1.47167 | -42.87739 | 28640 ft | 463 kts | 42° |
| 2026-04-17 07:25 | -1.44763 | -42.85641 | 28833 ft | 464 kts | 41° |
| 2026-04-17 07:26 | -1.42326 | -42.83514 | 28992 ft | 466 kts | 42° |
| 2026-04-17 07:26 | -1.39875 | -42.81373 | 29183 ft | 466 kts | 42° |
| 2026-04-17 07:26 | -1.37431 | -42.79238 | 29295 ft | 469 kts | 43° |
| 2026-04-17 07:26 | -1.34961 | -42.77081 | 29446 ft | 470 kts | 41° |
| 2026-04-17 07:27 | -1.32522 | -42.74952 | 29615 ft | 471 kts | 42° |
| 2026-04-17 07:27 | -1.30050 | -42.72797 | 29841 ft | 470 kts | 42° |
| 2026-04-17 07:27 | -1.27574 | -42.70638 | 30045 ft | 470 kts | 41° |
| 2026-04-17 07:27 | -1.25114 | -42.68490 | 30246 ft | 469 kts | 42° |
| 2026-04-17 07:28 | -1.22652 | -42.66342 | 30450 ft | 468 kts | 41° |
| 2026-04-17 07:28 | -1.20196 | -42.64199 | 30627 ft | 469 kts | 42° |
| 2026-04-17 07:28 | -1.17742 | -42.62058 | 30838 ft | 468 kts | 41° |
| 2026-04-17 07:28 | -1.15286 | -42.59916 | 31011 ft | 468 kts | 42° |
| 2026-04-17 07:29 | -1.12858 | -42.57795 | 31147 ft | 469 kts | 41° |
| 2026-04-17 07:29 | -1.10395 | -42.55645 | 31356 ft | 468 kts | 42° |
| 2026-04-17 07:29 | -1.07939 | -42.53503 | 31615 ft | 467 kts | 41° |
| 2026-04-17 07:29 | -1.05489 | -42.51367 | 31841 ft | 466 kts | 42° |
| 2026-04-17 07:30 | -1.03050 | -42.49238 | 32044 ft | 466 kts | 42° |
| 2026-04-17 07:30 | -1.00638 | -42.47132 | 32233 ft | 465 kts | 41° |
| 2026-04-17 07:30 | -0.98199 | -42.45003 | 32444 ft | 465 kts | 42° |
| 2026-04-17 07:30 | -0.95760 | -42.42875 | 32659 ft | 464 kts | 42° |
| 2026-04-17 07:31 | -0.93329 | -42.40754 | 32864 ft | 464 kts | 41° |
| 2026-04-17 07:31 | -0.90899 | -42.38633 | 33052 ft | 464 kts | 41° |
| 2026-04-17 07:31 | -0.88469 | -42.36514 | 33257 ft | 463 kts | 41° |
| 2026-04-17 07:31 | -0.86043 | -42.34397 | 33474 ft | 463 kts | 41° |
| 2026-04-17 07:32 | -0.83619 | -42.32282 | 33686 ft | 462 kts | 42° |
| 2026-04-17 07:32 | -0.81222 | -42.30190 | 33831 ft | 463 kts | 41° |
| 2026-04-17 07:32 | -0.78796 | -42.28073 | 33990 ft | 463 kts | 42° |
| 2026-04-17 07:32 | -0.76360 | -42.25948 | 34162 ft | 462 kts | 41° |
| 2026-04-17 07:33 | -0.73937 | -42.23835 | 34318 ft | 462 kts | 41° |
| 2026-04-17 07:33 | -0.71508 | -42.21716 | 34460 ft | 463 kts | 42° |
| 2026-04-17 07:33 | -0.69083 | -42.19600 | 34595 ft | 463 kts | 41° |
| 2026-04-17 07:33 | -0.66653 | -42.17480 | 34695 ft | 462 kts | 41° |
| 2026-04-17 07:34 | -0.61838 | -42.13280 | 34815 ft | 459 kts | 41° |
| 2026-04-17 07:34 | -0.57027 | -42.09082 | 34831 ft | 464 kts | 41° |
| 2026-04-17 07:35 | -0.52130 | -42.04810 | 34827 ft | 468 kts | 41° |
| 2026-04-17 07:35 | -0.47209 | -42.00517 | 34831 ft | 470 kts | 41° |
| 2026-04-17 07:36 | -0.42394 | -41.96317 | 34810 ft | 467 kts | 41° |
| 2026-04-17 07:36 | -0.37540 | -41.92083 | 34815 ft | 460 kts | 42° |
| 2026-04-17 07:37 | -0.32736 | -41.87892 | 34826 ft | 459 kts | 41° |
| 2026-04-17 07:37 | -0.27919 | -41.83690 | 34824 ft | 459 kts | 41° |
| 2026-04-17 07:38 | -0.23110 | -41.79495 | 34824 ft | 459 kts | 41° |
| 2026-04-17 07:38 | -0.18317 | -41.75314 | 34823 ft | 460 kts | 41° |
| 2026-04-17 07:39 | -0.13483 | -41.71097 | 34825 ft | 461 kts | 41° |
| 2026-04-17 07:39 | -0.08637 | -41.66870 | 34827 ft | 462 kts | 41° |
| 2026-04-17 07:40 | -0.03815 | -41.62665 | 34827 ft | 463 kts | 41° |
| 2026-04-17 07:40 | 0.01045 | -41.58426 | 34826 ft | 464 kts | 42° |
| 2026-04-17 07:41 | 0.05916 | -41.54177 | 34826 ft | 464 kts | 42° |
| 2026-04-17 07:41 | 0.10765 | -41.49949 | 34823 ft | 465 kts | 42° |
| 2026-04-17 07:42 | 0.15633 | -41.45703 | 34824 ft | 464 kts | 42° |
| 2026-04-17 07:42 | 0.20506 | -41.41451 | 34823 ft | 463 kts | 43° |
| 2026-04-17 07:43 | 0.25334 | -41.37240 | 34825 ft | 463 kts | 42° |
| 2026-04-17 07:43 | 0.30193 | -41.32999 | 34828 ft | 462 kts | 42° |
| 2026-04-17 07:44 | 0.35035 | -41.28777 | 34827 ft | 461 kts | 42° |
| 2026-04-17 07:44 | 0.39836 | -41.24593 | 34826 ft | 460 kts | 42° |
| 2026-04-17 07:45 | 0.44662 | -41.20376 | 34826 ft | 459 kts | 43° |
| 2026-04-17 07:45 | 0.49479 | -41.16174 | 34830 ft | 459 kts | 43° |
| 2026-04-17 07:46 | 0.54278 | -41.11991 | 34827 ft | 459 kts | 43° |
| 2026-04-17 07:46 | 0.59093 | -41.07793 | 34830 ft | 459 kts | 43° |
| 2026-04-17 07:47 | 0.63881 | -41.03614 | 34829 ft | 459 kts | 43° |
| 2026-04-17 07:47 | 0.68627 | -40.99467 | 34829 ft | 460 kts | 43° |
| 2026-04-17 07:48 | 0.73462 | -40.95253 | 34829 ft | 461 kts | 43° |
| 2026-04-17 07:48 | 0.78278 | -40.91049 | 34828 ft | 462 kts | 43° |
| 2026-04-17 07:49 | 0.83140 | -40.86807 | 34830 ft | 463 kts | 43° |
| 2026-04-17 07:49 | 0.87978 | -40.82584 | 34830 ft | 464 kts | 42° |
| 2026-04-17 07:50 | 0.92851 | -40.78333 | 34833 ft | 465 kts | 42° |
| 2026-04-17 07:50 | 0.97713 | -40.74095 | 34832 ft | 466 kts | 42° |
| 2026-04-17 07:51 | 1.02608 | -40.69824 | 34834 ft | 467 kts | 42° |
| 2026-04-17 07:51 | 1.07483 | -40.65567 | 34828 ft | 468 kts | 43° |
| 2026-04-17 07:52 | 1.12395 | -40.61282 | 34835 ft | 468 kts | 42° |
| 2026-04-17 07:52 | 1.17312 | -40.56991 | 34825 ft | 469 kts | 42° |
| 2026-04-17 07:53 | 1.22234 | -40.52695 | 34833 ft | 469 kts | 42° |
| 2026-04-17 07:53 | 1.27128 | -40.48422 | 34831 ft | 470 kts | 42° |
| 2026-04-17 07:54 | 1.32060 | -40.44117 | 34830 ft | 470 kts | 42° |
| 2026-04-17 07:54 | 1.36987 | -40.39815 | 34828 ft | 470 kts | 42° |
| 2026-04-17 07:55 | 1.41918 | -40.35510 | 34833 ft | 470 kts | 42° |
| 2026-04-17 07:55 | 1.46018 | -40.31932 | 34829 ft | 470 kts | 42° |
| 2026-04-17 07:56 | 1.50950 | -40.27628 | 34831 ft | 469 kts | 42° |
| 2026-04-17 07:56 | 1.55835 | -40.23361 | 34842 ft | 469 kts | 42° |
| 2026-04-17 07:57 | 1.60765 | -40.19055 | 34837 ft | 470 kts | 42° |
| 2026-04-17 07:57 | 1.65686 | -40.14758 | 34838 ft | 470 kts | 42° |
| 2026-04-17 07:58 | 1.70618 | -40.10450 | 34835 ft | 470 kts | 42° |
| 2026-04-17 07:58 | 1.75541 | -40.06150 | 34833 ft | 470 kts | 41° |
| 2026-04-17 07:59 | 1.80442 | -40.01869 | 34831 ft | 470 kts | 41° |
| 2026-04-17 07:59 | 1.85286 | -39.97638 | 34832 ft | 471 kts | 41° |
| 2026-04-17 08:00 | 1.90235 | -39.93315 | 34838 ft | 472 kts | 41° |
| 2026-04-17 08:00 | 1.95185 | -39.88990 | 34842 ft | 472 kts | 41° |
| 2026-04-17 08:01 | 2.00100 | -39.84695 | 34841 ft | 473 kts | 41° |
| 2026-04-17 08:01 | 2.05074 | -39.80349 | 34835 ft | 473 kts | 42° |
| 2026-04-17 08:02 | 2.10044 | -39.76005 | 34838 ft | 473 kts | 41° |
| 2026-04-17 08:02 | 2.14979 | -39.71693 | 34837 ft | 474 kts | 41° |
| 2026-04-17 08:03 | 2.19952 | -39.67345 | 34837 ft | 474 kts | 41° |
| 2026-04-17 08:03 | 2.24886 | -39.63032 | 34835 ft | 474 kts | 41° |
| 2026-04-17 08:04 | 2.29856 | -39.58688 | 34837 ft | 473 kts | 41° |
| 2026-04-17 08:04 | 2.34812 | -39.54355 | 34843 ft | 473 kts | 42° |
| 2026-04-17 08:05 | 2.39768 | -39.50021 | 34841 ft | 472 kts | 41° |
| 2026-04-17 08:05 | 2.44695 | -39.45713 | 34842 ft | 472 kts | 42° |
| 2026-04-17 08:06 | 2.49646 | -39.41383 | 34842 ft | 472 kts | 42° |
| 2026-04-17 08:06 | 2.54596 | -39.37053 | 34835 ft | 472 kts | 41° |
| 2026-04-17 08:07 | 2.59513 | -39.32752 | 34838 ft | 472 kts | 41° |
| 2026-04-17 08:07 | 2.64466 | -39.28419 | 34835 ft | 472 kts | 42° |
| 2026-04-17 08:08 | 2.69420 | -39.24084 | 34836 ft | 472 kts | 42° |
| 2026-04-17 08:08 | 2.74334 | -39.19784 | 34842 ft | 472 kts | 42° |
| 2026-04-17 08:09 | 2.79285 | -39.15451 | 34843 ft | 472 kts | 42° |
| 2026-04-17 08:09 | 2.84231 | -39.11123 | 34843 ft | 472 kts | 42° |
| 2026-04-17 08:10 | 2.89157 | -39.06811 | 34843 ft | 472 kts | 42° |
| 2026-04-17 08:10 | 2.94112 | -39.02473 | 34841 ft | 472 kts | 42° |
| 2026-04-17 08:11 | 2.98966 | -38.98223 | 34835 ft | 473 kts | 42° |
| 2026-04-17 08:11 | 3.03920 | -38.93885 | 34835 ft | 473 kts | 42° |
| 2026-04-17 08:12 | 3.08842 | -38.89574 | 34839 ft | 473 kts | 42° |
| 2026-04-17 08:12 | 3.13799 | -38.85232 | 34844 ft | 473 kts | 41° |
| 2026-04-17 08:13 | 3.18763 | -38.80884 | 34849 ft | 473 kts | 41° |
| 2026-04-17 08:14 | 3.26170 | -38.74395 | 34840 ft | 473 kts | 41° |
| 2026-04-17 08:14 | 3.31134 | -38.70044 | 34844 ft | 473 kts | 41° |
| 2026-04-17 08:15 | 3.36087 | -38.65704 | 34850 ft | 473 kts | 41° |
| 2026-04-17 08:15 | 3.41022 | -38.61378 | 34848 ft | 473 kts | 41° |
| 2026-04-17 08:16 | 3.45957 | -38.57050 | 34844 ft | 473 kts | 41° |
| 2026-04-17 08:16 | 3.50932 | -38.52689 | 34844 ft | 473 kts | 41° |
| 2026-04-17 08:17 | 3.55856 | -38.48371 | 34840 ft | 473 kts | 41° |
| 2026-04-17 08:17 | 3.60816 | -38.44019 | 34839 ft | 473 kts | 41° |
| 2026-04-17 08:18 | 3.65773 | -38.39671 | 34845 ft | 473 kts | 41° |
| 2026-04-17 08:18 | 3.70709 | -38.35340 | 34852 ft | 473 kts | 41° |
| 2026-04-17 08:19 | 3.75676 | -38.30980 | 34852 ft | 473 kts | 41° |
| 2026-04-17 08:19 | 3.80613 | -38.26648 | 34851 ft | 474 kts | 41° |
| 2026-04-17 08:20 | 3.85114 | -38.21837 | 34854 ft | 473 kts | 53° |
| 2026-04-17 08:20 | 3.89090 | -38.16567 | 34843 ft | 474 kts | 53° |
| 2026-04-17 08:21 | 3.93015 | -38.11325 | 34838 ft | 473 kts | 53° |
| 2026-04-17 08:21 | 3.97003 | -38.06059 | 34841 ft | 473 kts | 53° |
| 2026-04-17 08:22 | 4.00991 | -38.00830 | 34840 ft | 473 kts | 53° |
| 2026-04-17 08:22 | 4.04908 | -37.95703 | 34845 ft | 472 kts | 53° |
| 2026-04-17 08:23 | 4.08897 | -37.90482 | 34851 ft | 471 kts | 53° |
| 2026-04-17 08:23 | 4.12883 | -37.85261 | 34850 ft | 471 kts | 53° |
| 2026-04-17 08:24 | 4.16861 | -37.80049 | 34852 ft | 471 kts | 53° |
| 2026-04-17 08:24 | 4.20841 | -37.74832 | 34847 ft | 471 kts | 53° |
| 2026-04-17 08:25 | 4.24799 | -37.69644 | 34841 ft | 471 kts | 53° |
| 2026-04-17 08:25 | 4.28779 | -37.64425 | 34839 ft | 471 kts | 53° |
| 2026-04-17 08:26 | 4.32746 | -37.59223 | 34841 ft | 471 kts | 53° |
| 2026-04-17 08:26 | 4.36731 | -37.53996 | 34847 ft | 471 kts | 53° |
| 2026-04-17 08:27 | 4.40685 | -37.48809 | 34854 ft | 471 kts | 53° |
| 2026-04-17 08:27 | 4.44666 | -37.43584 | 34855 ft | 471 kts | 53° |
| 2026-04-17 08:28 | 4.48648 | -37.38360 | 34855 ft | 471 kts | 53° |
| 2026-04-17 08:28 | 4.52610 | -37.33159 | 34857 ft | 471 kts | 53° |
| 2026-04-17 08:29 | 4.56594 | -37.27927 | 34847 ft | 471 kts | 53° |
| 2026-04-17 08:29 | 4.60568 | -37.22710 | 34843 ft | 471 kts | 53° |
| 2026-04-17 08:30 | 4.64550 | -37.17480 | 34849 ft | 471 kts | 53° |
| 2026-04-17 08:30 | 4.68518 | -37.12266 | 34850 ft | 471 kts | 53° |
| 2026-04-17 08:31 | 4.72469 | -37.07074 | 34853 ft | 471 kts | 53° |
| 2026-04-17 08:31 | 4.76445 | -37.01849 | 34856 ft | 471 kts | 53° |
| 2026-04-17 08:32 | 4.80333 | -36.96738 | 34856 ft | 470 kts | 53° |
| 2026-04-17 08:32 | 4.84308 | -36.91511 | 34859 ft | 471 kts | 53° |
| 2026-04-17 08:33 | 4.88289 | -36.86276 | 34860 ft | 471 kts | 53° |
| 2026-04-17 08:33 | 4.92248 | -36.81068 | 34858 ft | 471 kts | 53° |
| 2026-04-17 08:34 | 4.96226 | -36.75833 | 34853 ft | 471 kts | 53° |
| 2026-04-17 08:34 | 5.00197 | -36.70608 | 34855 ft | 471 kts | 53° |
| 2026-04-17 08:35 | 5.04151 | -36.65405 | 34855 ft | 471 kts | 53° |
| 2026-04-17 08:35 | 5.08131 | -36.60165 | 34862 ft | 471 kts | 53° |
| 2026-04-17 08:36 | 5.12109 | -36.54923 | 34865 ft | 471 kts | 53° |
| 2026-04-17 08:36 | 5.16088 | -36.49682 | 34867 ft | 471 kts | 53° |
| 2026-04-17 08:37 | 5.20048 | -36.44466 | 34859 ft | 471 kts | 53° |
| 2026-04-17 08:37 | 5.24028 | -36.39223 | 34863 ft | 471 kts | 53° |
| 2026-04-17 08:38 | 5.27978 | -36.34015 | 34855 ft | 471 kts | 53° |
| 2026-04-17 08:38 | 5.31948 | -36.28779 | 34857 ft | 471 kts | 53° |
| 2026-04-17 08:39 | 5.35913 | -36.23551 | 34856 ft | 471 kts | 53° |
| 2026-04-17 08:39 | 5.39863 | -36.18341 | 34864 ft | 471 kts | 53° |
| 2026-04-17 08:40 | 5.43832 | -36.13105 | 34868 ft | 470 kts | 53° |
| 2026-04-17 08:40 | 5.47798 | -36.07870 | 34865 ft | 470 kts | 53° |
| 2026-04-17 08:41 | 5.51744 | -36.02663 | 34870 ft | 471 kts | 53° |
| 2026-04-17 08:41 | 5.55659 | -35.97491 | 34865 ft | 471 kts | 53° |
| 2026-04-17 08:42 | 5.59623 | -35.92254 | 34858 ft | 471 kts | 53° |
| 2026-04-17 08:42 | 5.63571 | -35.87039 | 34862 ft | 471 kts | 53° |
| 2026-04-17 08:43 | 5.67542 | -35.81793 | 34862 ft | 471 kts | 53° |
| 2026-04-17 08:43 | 5.70831 | -35.77447 | 34861 ft | 470 kts | 53° |
| 2026-04-17 08:44 | 5.75435 | -35.71359 | 34873 ft | 470 kts | 53° |
| 2026-04-17 08:44 | 5.78747 | -35.66979 | 34871 ft | 469 kts | 53° |
| 2026-04-17 08:45 | 5.82675 | -35.61784 | 34879 ft | 469 kts | 53° |
| 2026-04-17 08:45 | 5.86633 | -35.56546 | 34877 ft | 469 kts | 53° |
| 2026-04-17 08:46 | 5.90593 | -35.51306 | 34876 ft | 470 kts | 53° |
| 2026-04-17 08:46 | 5.94527 | -35.46099 | 34870 ft | 470 kts | 53° |
| 2026-04-17 08:47 | 5.98488 | -35.40854 | 34866 ft | 470 kts | 53° |
| 2026-04-17 08:47 | 6.02416 | -35.35652 | 34865 ft | 470 kts | 53° |
| 2026-04-17 08:48 | 6.06378 | -35.30403 | 34871 ft | 470 kts | 53° |
| 2026-04-17 08:48 | 6.10334 | -35.25161 | 34870 ft | 470 kts | 53° |
| 2026-04-17 08:49 | 6.14285 | -35.19923 | 34880 ft | 470 kts | 52° |
| 2026-04-17 08:49 | 6.18217 | -35.14710 | 34887 ft | 470 kts | 52° |
| 2026-04-17 08:50 | 6.22177 | -35.09457 | 34884 ft | 470 kts | 52° |
| 2026-04-17 08:50 | 6.26120 | -35.04226 | 34882 ft | 471 kts | 52° |
| 2026-04-17 08:51 | 6.30020 | -34.99051 | 34873 ft | 472 kts | 52° |
| 2026-04-17 08:51 | 6.33991 | -34.93780 | 34872 ft | 473 kts | 52° |
| 2026-04-17 08:52 | 6.37942 | -34.88533 | 34876 ft | 473 kts | 52° |
| 2026-04-17 08:52 | 6.41916 | -34.83255 | 34881 ft | 473 kts | 52° |
| 2026-04-17 08:53 | 6.45887 | -34.77981 | 34885 ft | 473 kts | 52° |
| 2026-04-17 08:53 | 6.49856 | -34.72707 | 34890 ft | 472 kts | 52° |
| 2026-04-17 08:54 | 6.53802 | -34.67459 | 34888 ft | 473 kts | 52° |
| 2026-04-17 08:54 | 6.57783 | -34.62166 | 34881 ft | 473 kts | 52° |
| 2026-04-17 08:55 | 6.61748 | -34.56889 | 34879 ft | 473 kts | 52° |
| 2026-04-17 08:55 | 6.65688 | -34.51649 | 34879 ft | 472 kts | 52° |
| 2026-04-17 08:56 | 6.69648 | -34.46378 | 34882 ft | 472 kts | 52° |
| 2026-04-17 08:56 | 6.73613 | -34.41101 | 34885 ft | 471 kts | 52° |
| 2026-04-17 08:57 | 6.77575 | -34.35825 | 34890 ft | 471 kts | 52° |
| 2026-04-17 08:57 | 6.81508 | -34.30587 | 34895 ft | 471 kts | 52° |
| 2026-04-17 08:58 | 6.85468 | -34.25309 | 34889 ft | 472 kts | 52° |
| 2026-04-17 08:58 | 6.89432 | -34.20024 | 34883 ft | 472 kts | 51° |
| 2026-04-17 08:59 | 6.93368 | -34.14774 | 34889 ft | 472 kts | 51° |
| 2026-04-17 08:59 | 6.97331 | -34.09487 | 34884 ft | 472 kts | 52° |
| 2026-04-17 09:00 | 7.01285 | -34.04211 | 34891 ft | 472 kts | 52° |
| 2026-04-17 09:00 | 7.05157 | -33.99044 | 34888 ft | 471 kts | 52° |
| 2026-04-17 09:01 | 7.09107 | -33.93771 | 34894 ft | 471 kts | 52° |
| 2026-04-17 09:01 | 7.13053 | -33.88501 | 34897 ft | 471 kts | 51° |
| 2026-04-17 09:02 | 7.17004 | -33.83223 | 34892 ft | 470 kts | 52° |
| 2026-04-17 09:02 | 7.20925 | -33.77983 | 34892 ft | 470 kts | 51° |
| 2026-04-17 09:03 | 7.24868 | -33.72713 | 34895 ft | 470 kts | 51° |
| 2026-04-17 09:03 | 7.28792 | -33.67466 | 34888 ft | 471 kts | 52° |
| 2026-04-17 09:04 | 7.32737 | -33.62188 | 34898 ft | 471 kts | 51° |
| 2026-04-17 09:04 | 7.36684 | -33.56904 | 34897 ft | 472 kts | 52° |
| 2026-04-17 09:05 | 7.40639 | -33.51612 | 34896 ft | 472 kts | 52° |
| 2026-04-17 09:05 | 7.44596 | -33.46313 | 34902 ft | 473 kts | 52° |
| 2026-04-17 09:06 | 7.48536 | -33.41033 | 34912 ft | 473 kts | 52° |
| 2026-04-17 09:06 | 7.52512 | -33.35707 | 34897 ft | 474 kts | 52° |
| 2026-04-17 09:07 | 7.56444 | -33.30435 | 34896 ft | 473 kts | 52° |
| 2026-04-17 09:07 | 7.60416 | -33.25110 | 34894 ft | 473 kts | 52° |
| 2026-04-17 09:08 | 7.64340 | -33.19847 | 34895 ft | 472 kts | 52° |
| 2026-04-17 09:08 | 7.68289 | -33.14549 | 34895 ft | 472 kts | 52° |
| 2026-04-17 09:09 | 7.72237 | -33.09249 | 34900 ft | 471 kts | 52° |
| 2026-04-17 09:09 | 7.76158 | -33.03984 | 34903 ft | 471 kts | 52° |
| 2026-04-17 09:10 | 7.82007 | -32.96127 | 34895 ft | 472 kts | 52° |
| 2026-04-17 09:10 | 7.85951 | -32.90826 | 34903 ft | 472 kts | 52° |
| 2026-04-17 09:11 | 7.89881 | -32.85544 | 34900 ft | 472 kts | 52° |
| 2026-04-17 09:11 | 7.93834 | -32.80226 | 34913 ft | 473 kts | 52° |
| 2026-04-17 09:12 | 7.97764 | -32.74938 | 34905 ft | 473 kts | 52° |
| 2026-04-17 09:12 | 8.01721 | -32.69614 | 34902 ft | 474 kts | 52° |
| 2026-04-17 09:13 | 8.05660 | -32.64310 | 34900 ft | 474 kts | 52° |
| 2026-04-17 09:13 | 8.09623 | -32.58972 | 34900 ft | 475 kts | 52° |
| 2026-04-17 09:14 | 8.13595 | -32.53620 | 34903 ft | 475 kts | 52° |
| 2026-04-17 09:14 | 8.17538 | -32.48305 | 34903 ft | 476 kts | 52° |
| 2026-04-17 09:15 | 8.21509 | -32.42951 | 34909 ft | 476 kts | 52° |
| 2026-04-17 09:15 | 8.25480 | -32.37595 | 34912 ft | 476 kts | 52° |
| 2026-04-17 09:16 | 8.29445 | -32.32245 | 34909 ft | 476 kts | 52° |
| 2026-04-17 09:16 | 8.33414 | -32.26886 | 34905 ft | 475 kts | 52° |
| 2026-04-17 09:17 | 8.37354 | -32.21566 | 34911 ft | 475 kts | 52° |
| 2026-04-17 09:17 | 8.41320 | -32.16207 | 34915 ft | 475 kts | 52° |
| 2026-04-17 09:18 | 8.45285 | -32.10849 | 34909 ft | 475 kts | 52° |
| 2026-04-17 09:18 | 8.49217 | -32.05533 | 34912 ft | 475 kts | 52° |
| 2026-04-17 09:19 | 8.53179 | -32.00174 | 34910 ft | 475 kts | 52° |
| 2026-04-17 09:19 | 8.57067 | -31.94913 | 34911 ft | 476 kts | 52° |
| 2026-04-17 09:20 | 8.61031 | -31.89548 | 34916 ft | 476 kts | 52° |
| 2026-04-17 09:20 | 8.65004 | -31.84169 | 34918 ft | 476 kts | 52° |
| 2026-04-17 09:21 | 8.68963 | -31.78805 | 34921 ft | 476 kts | 52° |
| 2026-04-17 09:21 | 8.72900 | -31.73469 | 34913 ft | 477 kts | 51° |
| 2026-04-17 09:22 | 8.76876 | -31.68079 | 34918 ft | 477 kts | 51° |
| 2026-04-17 09:22 | 8.80831 | -31.62715 | 34919 ft | 478 kts | 51° |
| 2026-04-17 09:23 | 8.84824 | -31.57297 | 34914 ft | 479 kts | 51° |
| 2026-04-17 09:23 | 8.88813 | -31.51882 | 34919 ft | 480 kts | 51° |
| 2026-04-17 09:24 | 8.92790 | -31.46482 | 34917 ft | 480 kts | 51° |
| 2026-04-17 09:24 | 8.96782 | -31.41058 | 34920 ft | 481 kts | 51° |
| 2026-04-17 09:25 | 9.00755 | -31.35659 | 34915 ft | 481 kts | 51° |
| 2026-04-17 09:25 | 9.04755 | -31.30220 | 34919 ft | 481 kts | 51° |
| 2026-04-17 09:26 | 9.08750 | -31.24784 | 34916 ft | 481 kts | 51° |
| 2026-04-17 09:26 | 9.12739 | -31.19356 | 34919 ft | 481 kts | 51° |
| 2026-04-17 09:27 | 9.16737 | -31.13913 | 34920 ft | 481 kts | 51° |
| 2026-04-17 09:27 | 9.20732 | -31.08473 | 34917 ft | 481 kts | 51° |
| 2026-04-17 09:28 | 9.24700 | -31.03066 | 34917 ft | 481 kts | 51° |
| 2026-04-17 09:28 | 9.28632 | -30.97706 | 34922 ft | 481 kts | 51° |
| 2026-04-17 09:29 | 9.32631 | -30.92252 | 34920 ft | 481 kts | 51° |
| 2026-04-17 09:29 | 9.36597 | -30.86840 | 34924 ft | 481 kts | 51° |
| 2026-04-17 09:30 | 9.40586 | -30.81396 | 34924 ft | 480 kts | 51° |
| 2026-04-17 09:30 | 9.44546 | -30.75989 | 34924 ft | 480 kts | 51° |
| 2026-04-17 09:31 | 9.48532 | -30.70543 | 34927 ft | 481 kts | 51° |
| 2026-04-17 09:31 | 9.52500 | -30.65119 | 34921 ft | 481 kts | 51° |
| 2026-04-17 09:32 | 9.56482 | -30.59675 | 34926 ft | 481 kts | 51° |
| 2026-04-17 09:32 | 9.59802 | -30.55133 | 34927 ft | 481 kts | 51° |
| 2026-04-17 09:33 | 9.63789 | -30.49677 | 34926 ft | 481 kts | 51° |
| 2026-04-17 09:33 | 9.67775 | -30.44219 | 34925 ft | 481 kts | 51° |
| 2026-04-17 09:34 | 9.71736 | -30.38794 | 34924 ft | 481 kts | 51° |
| 2026-04-17 09:34 | 9.75728 | -30.33323 | 34924 ft | 481 kts | 51° |
| 2026-04-17 09:35 | 9.79694 | -30.27885 | 34927 ft | 482 kts | 51° |
| 2026-04-17 09:35 | 9.83686 | -30.22410 | 34923 ft | 482 kts | 51° |
| 2026-04-17 09:36 | 9.87684 | -30.16923 | 34925 ft | 483 kts | 51° |
| 2026-04-17 09:36 | 9.91664 | -30.11459 | 34924 ft | 483 kts | 51° |
| 2026-04-17 09:37 | 9.95659 | -30.05969 | 34931 ft | 484 kts | 51° |
| 2026-04-17 09:37 | 9.99672 | -30.00455 | 34929 ft | 484 kts | 51° |
| 2026-04-17 09:38 | 10.03613 | -29.95076 | 34928 ft | 484 kts | 50° |
| 2026-04-17 09:38 | 10.07658 | -29.89593 | 34927 ft | 485 kts | 50° |
| 2026-04-17 09:39 | 10.11677 | -29.84142 | 34926 ft | 485 kts | 50° |
| 2026-04-17 09:39 | 10.15720 | -29.78647 | 34927 ft | 485 kts | 50° |
| 2026-04-17 09:40 | 10.19754 | -29.73158 | 34929 ft | 485 kts | 50° |
| 2026-04-17 09:40 | 10.23794 | -29.67658 | 34932 ft | 485 kts | 50° |
| 2026-04-17 09:41 | 10.27805 | -29.62195 | 34933 ft | 485 kts | 50° |
| 2026-04-17 09:41 | 10.31844 | -29.56692 | 34932 ft | 485 kts | 50° |
| 2026-04-17 09:42 | 10.35877 | -29.51194 | 34931 ft | 485 kts | 50° |
| 2026-04-17 09:42 | 10.39907 | -29.45698 | 34931 ft | 485 kts | 50° |
| 2026-04-17 09:43 | 10.43944 | -29.40189 | 34933 ft | 485 kts | 50° |
| 2026-04-17 09:43 | 10.47953 | -29.34716 | 34930 ft | 485 kts | 50° |
| 2026-04-17 09:44 | 10.51982 | -29.29212 | 34933 ft | 485 kts | 50° |
| 2026-04-17 09:44 | 10.55991 | -29.23733 | 34943 ft | 485 kts | 50° |
| 2026-04-17 09:45 | 10.60020 | -29.18225 | 34935 ft | 485 kts | 50° |
| 2026-04-17 09:45 | 10.64050 | -29.12712 | 34935 ft | 485 kts | 50° |
| 2026-04-17 09:46 | 10.68072 | -29.07208 | 34936 ft | 485 kts | 50° |
| 2026-04-17 09:46 | 10.72081 | -29.01717 | 34937 ft | 486 kts | 50° |
| 2026-04-17 09:47 | 10.76056 | -28.96272 | 34938 ft | 486 kts | 50° |
| 2026-04-17 09:47 | 10.80071 | -28.90767 | 34938 ft | 486 kts | 50° |
| 2026-04-17 09:48 | 10.84105 | -28.85235 | 34937 ft | 486 kts | 50° |
| 2026-04-17 09:48 | 10.88139 | -28.79701 | 34936 ft | 486 kts | 50° |
| 2026-04-17 09:49 | 10.92150 | -28.74194 | 34946 ft | 486 kts | 50° |
| 2026-04-17 09:49 | 10.96187 | -28.68649 | 34939 ft | 487 kts | 50° |
| 2026-04-17 09:50 | 11.00193 | -28.63144 | 34939 ft | 487 kts | 50° |
| 2026-04-17 09:50 | 11.04230 | -28.57593 | 34937 ft | 487 kts | 50° |
| 2026-04-17 09:51 | 11.08273 | -28.52031 | 34940 ft | 487 kts | 50° |
| 2026-04-17 09:51 | 11.12290 | -28.46502 | 34940 ft | 488 kts | 50° |
| 2026-04-17 09:52 | 11.16329 | -28.40940 | 34937 ft | 488 kts | 50° |
| 2026-04-17 09:52 | 11.20363 | -28.35382 | 34938 ft | 488 kts | 50° |
| 2026-04-17 09:53 | 11.24377 | -28.29848 | 34940 ft | 488 kts | 50° |
| 2026-04-17 09:53 | 11.28408 | -28.24287 | 34938 ft | 488 kts | 50° |
| 2026-04-17 09:54 | 11.32442 | -28.18719 | 34931 ft | 488 kts | 50° |
| 2026-04-17 09:54 | 11.36476 | -28.13149 | 34940 ft | 488 kts | 50° |
| 2026-04-17 09:55 | 11.40482 | -28.07615 | 34947 ft | 488 kts | 50° |
| 2026-04-17 09:55 | 11.44521 | -28.02032 | 34942 ft | 488 kts | 50° |
| 2026-04-17 09:56 | 11.48504 | -27.96523 | 34944 ft | 489 kts | 50° |
| 2026-04-17 09:56 | 11.52516 | -27.90971 | 34945 ft | 489 kts | 50° |
| 2026-04-17 09:57 | 11.56559 | -27.85373 | 34946 ft | 489 kts | 50° |
| 2026-04-17 09:57 | 11.60574 | -27.79810 | 34945 ft | 489 kts | 50° |
| 2026-04-17 09:58 | 11.64620 | -27.74201 | 34947 ft | 489 kts | 50° |
| 2026-04-17 09:58 | 11.68657 | -27.68603 | 34943 ft | 489 kts | 49° |
| 2026-04-17 09:59 | 11.72679 | -27.63022 | 34947 ft | 490 kts | 50° |
| 2026-04-17 09:59 | 11.76719 | -27.57412 | 34948 ft | 490 kts | 50° |
| 2026-04-17 10:00 | 11.80732 | -27.51837 | 34950 ft | 490 kts | 49° |
| 2026-04-17 10:00 | 11.84787 | -27.46201 | 34951 ft | 490 kts | 49° |
| 2026-04-17 10:01 | 11.88828 | -27.40580 | 34950 ft | 491 kts | 50° |
| 2026-04-17 10:01 | 11.92845 | -27.34990 | 34944 ft | 491 kts | 50° |
| 2026-04-17 10:02 | 11.96882 | -27.29368 | 34945 ft | 491 kts | 50° |
| 2026-04-17 10:02 | 12.00918 | -27.23746 | 34945 ft | 490 kts | 50° |
| 2026-04-17 10:03 | 12.04933 | -27.18148 | 34943 ft | 490 kts | 50° |
| 2026-04-17 10:03 | 12.08975 | -27.12510 | 34945 ft | 491 kts | 49° |
| 2026-04-17 10:04 | 12.12989 | -27.06909 | 34949 ft | 491 kts | 49° |
| 2026-04-17 10:04 | 12.17028 | -27.01269 | 34948 ft | 491 kts | 49° |
| 2026-04-17 10:05 | 12.20998 | -26.95721 | 34947 ft | 491 kts | 49° |
| 2026-04-17 10:05 | 12.25012 | -26.90108 | 34950 ft | 491 kts | 49° |
| 2026-04-17 10:06 | 12.29050 | -26.84460 | 34950 ft | 491 kts | 49° |
| 2026-04-17 10:06 | 12.33089 | -26.78806 | 34948 ft | 492 kts | 49° |
| 2026-04-17 10:07 | 12.37110 | -26.73175 | 34953 ft | 492 kts | 49° |
| 2026-04-17 10:07 | 12.41144 | -26.67521 | 34952 ft | 492 kts | 49° |
| 2026-04-17 10:08 | 12.45182 | -26.61859 | 34948 ft | 492 kts | 49° |
| 2026-04-17 10:08 | 12.49194 | -26.56230 | 34952 ft | 492 kts | 49° |
| 2026-04-17 10:09 | 12.53233 | -26.50559 | 34952 ft | 492 kts | 49° |
| 2026-04-17 10:09 | 12.57272 | -26.44885 | 34951 ft | 493 kts | 49° |
| 2026-04-17 10:10 | 12.61288 | -26.39239 | 34947 ft | 493 kts | 49° |
| 2026-04-17 10:11 | 12.67348 | -26.30716 | 34955 ft | 493 kts | 49° |
| 2026-04-17 10:11 | 12.71385 | -26.25032 | 34949 ft | 493 kts | 49° |
| 2026-04-17 10:12 | 12.75398 | -26.19378 | 34950 ft | 493 kts | 49° |
| 2026-04-17 10:12 | 12.79433 | -26.13690 | 34954 ft | 493 kts | 49° |
| 2026-04-17 10:13 | 12.83460 | -26.08010 | 34951 ft | 493 kts | 49° |
| 2026-04-17 10:13 | 12.87490 | -26.02323 | 34958 ft | 493 kts | 49° |
| 2026-04-17 10:14 | 12.91432 | -25.96757 | 34963 ft | 493 kts | 49° |
| 2026-04-17 10:14 | 12.95462 | -25.91062 | 34960 ft | 493 kts | 49° |
| 2026-04-17 10:15 | 12.99494 | -25.85360 | 34958 ft | 493 kts | 49° |
| 2026-04-17 10:15 | 13.03490 | -25.79706 | 34954 ft | 493 kts | 49° |
| 2026-04-17 10:16 | 13.07517 | -25.74006 | 34954 ft | 493 kts | 49° |
| 2026-04-17 10:16 | 13.11522 | -25.68331 | 34953 ft | 493 kts | 49° |
| 2026-04-17 10:17 | 13.15541 | -25.62634 | 34963 ft | 492 kts | 49° |
| 2026-04-17 10:17 | 13.19558 | -25.56937 | 34950 ft | 493 kts | 49° |
| 2026-04-17 10:18 | 13.23581 | -25.51226 | 34945 ft | 492 kts | 49° |
| 2026-04-17 10:18 | 13.27571 | -25.45559 | 34945 ft | 492 kts | 49° |
| 2026-04-17 10:19 | 13.31586 | -25.39853 | 34963 ft | 492 kts | 49° |
| 2026-04-17 10:19 | 13.35590 | -25.34159 | 34949 ft | 492 kts | 49° |
| 2026-04-17 10:20 | 13.39608 | -25.28441 | 34948 ft | 492 kts | 49° |
| 2026-04-17 10:20 | 13.43598 | -25.22759 | 34946 ft | 492 kts | 49° |
| 2026-04-17 10:21 | 13.46929 | -25.18012 | 34961 ft | 492 kts | 49° |
| 2026-04-17 10:21 | 13.51579 | -25.11383 | 34947 ft | 492 kts | 49° |
| 2026-04-17 10:22 | 13.54931 | -25.06600 | 34953 ft | 492 kts | 49° |
| 2026-04-17 10:22 | 13.58912 | -25.00917 | 34960 ft | 492 kts | 49° |
| 2026-04-17 10:23 | 13.62850 | -24.95291 | 34955 ft | 492 kts | 49° |
| 2026-04-17 10:23 | 13.66856 | -24.89565 | 34957 ft | 492 kts | 49° |
| 2026-04-17 10:24 | 13.70830 | -24.83879 | 34951 ft | 493 kts | 49° |
| 2026-04-17 10:24 | 13.74833 | -24.78149 | 34954 ft | 493 kts | 49° |
| 2026-04-17 10:25 | 13.78841 | -24.72408 | 34956 ft | 493 kts | 49° |
| 2026-04-17 10:25 | 13.82840 | -24.66675 | 34958 ft | 493 kts | 49° |
| 2026-04-17 10:26 | 13.86986 | -24.61145 | 34944 ft | 486 kts | 39° |
| 2026-04-17 10:26 | 13.92243 | -24.56943 | 34952 ft | 470 kts | 22° |
| 2026-04-17 10:27 | 13.98003 | -24.53773 | 34965 ft | 470 kts | 21° |
| 2026-04-17 10:27 | 14.03738 | -24.50522 | 34960 ft | 472 kts | 22° |
| 2026-04-17 10:28 | 14.09223 | -24.46768 | 34962 ft | 479 kts | 30° |
| 2026-04-17 10:28 | 14.14557 | -24.42597 | 34958 ft | 481 kts | 31° |
| 2026-04-17 10:29 | 14.19875 | -24.38451 | 34963 ft | 481 kts | 30° |
| 2026-04-17 10:29 | 14.25259 | -24.34345 | 34958 ft | 481 kts | 30° |
| 2026-04-17 10:30 | 14.30670 | -24.30260 | 34961 ft | 481 kts | 29° |
| 2026-04-17 10:30 | 14.36053 | -24.26200 | 34964 ft | 481 kts | 29° |
| 2026-04-17 10:31 | 14.41464 | -24.22113 | 34964 ft | 482 kts | 29° |
| 2026-04-17 10:31 | 14.46872 | -24.18022 | 34955 ft | 478 kts | 29° |
| 2026-04-17 10:31 | 14.49543 | -24.15996 | 34769 ft | 472 kts | 29° |
| 2026-04-17 10:32 | 14.52141 | -24.14026 | 34442 ft | 465 kts | 29° |
| 2026-04-17 10:32 | 14.54736 | -24.12057 | 34078 ft | 461 kts | 29° |
| 2026-04-17 10:32 | 14.57325 | -24.10096 | 33670 ft | 458 kts | 29° |
| 2026-04-17 10:32 | 14.59889 | -24.08155 | 33255 ft | 454 kts | 29° |
| 2026-04-17 10:33 | 14.62400 | -24.06253 | 32868 ft | 451 kts | 28° |
| 2026-04-17 10:33 | 14.64921 | -24.04342 | 32483 ft | 448 kts | 28° |
| 2026-04-17 10:33 | 14.67422 | -24.02446 | 32114 ft | 444 kts | 28° |
| 2026-04-17 10:33 | 14.69923 | -24.00549 | 31737 ft | 441 kts | 28° |
| 2026-04-17 10:34 | 14.72310 | -23.98739 | 31358 ft | 439 kts | 28° |
| 2026-04-17 10:34 | 14.74768 | -23.96873 | 30989 ft | 436 kts | 28° |
| 2026-04-17 10:34 | 14.77178 | -23.95044 | 30622 ft | 433 kts | 28° |
| 2026-04-17 10:34 | 14.79611 | -23.93197 | 30257 ft | 431 kts | 28° |
| 2026-04-17 10:35 | 14.82026 | -23.91362 | 29867 ft | 428 kts | 28° |
| 2026-04-17 10:35 | 14.84421 | -23.89543 | 29447 ft | 426 kts | 28° |
| 2026-04-17 10:35 | 14.86774 | -23.87755 | 29049 ft | 422 kts | 28° |
| 2026-04-17 10:35 | 14.89132 | -23.85961 | 28656 ft | 419 kts | 28° |
| 2026-04-17 10:36 | 14.91473 | -23.84181 | 28277 ft | 416 kts | 28° |
| 2026-04-17 10:36 | 14.93795 | -23.82415 | 27908 ft | 413 kts | 29° |
| 2026-04-17 10:36 | 14.96105 | -23.80658 | 27540 ft | 410 kts | 29° |
| 2026-04-17 10:36 | 14.98397 | -23.78913 | 27178 ft | 407 kts | 29° |
| 2026-04-17 10:37 | 15.00634 | -23.77211 | 26825 ft | 404 kts | 29° |
| 2026-04-17 10:37 | 15.02893 | -23.75491 | 26481 ft | 402 kts | 30° |
| 2026-04-17 10:37 | 15.05145 | -23.73776 | 26122 ft | 400 kts | 30° |
| 2026-04-17 10:37 | 15.07378 | -23.72068 | 25773 ft | 398 kts | 30° |
| 2026-04-17 10:38 | 15.09612 | -23.70368 | 25386 ft | 397 kts | 30° |
| 2026-04-17 10:38 | 15.11809 | -23.68696 | 25048 ft | 395 kts | 30° |
| 2026-04-17 10:38 | 15.14024 | -23.67010 | 24678 ft | 394 kts | 31° |
| 2026-04-17 10:38 | 15.16229 | -23.65330 | 24331 ft | 393 kts | 31° |
| 2026-04-17 10:39 | 15.18435 | -23.63649 | 23966 ft | 392 kts | 31° |
| 2026-04-17 10:39 | 15.20630 | -23.61974 | 23606 ft | 392 kts | 31° |
| 2026-04-17 10:39 | 15.22826 | -23.60297 | 23200 ft | 390 kts | 32° |
| 2026-04-17 10:39 | 15.25006 | -23.58632 | 22822 ft | 388 kts | 32° |
| 2026-04-17 10:40 | 15.27172 | -23.56978 | 22456 ft | 386 kts | 32° |
| 2026-04-17 10:40 | 15.29330 | -23.55328 | 22100 ft | 384 kts | 32° |
| 2026-04-17 10:40 | 15.31449 | -23.53709 | 21765 ft | 381 kts | 32° |
| 2026-04-17 10:40 | 15.33577 | -23.52083 | 21406 ft | 379 kts | 33° |
| 2026-04-17 10:41 | 15.35697 | -23.50462 | 21076 ft | 377 kts | 33° |
| 2026-04-17 10:41 | 15.37805 | -23.48850 | 20736 ft | 375 kts | 33° |
| 2026-04-17 10:41 | 15.39896 | -23.47250 | 20407 ft | 373 kts | 33° |
| 2026-04-17 10:41 | 15.41983 | -23.45654 | 20060 ft | 371 kts | 33° |
| 2026-04-17 10:42 | 15.44057 | -23.44067 | 19723 ft | 370 kts | 33° |
| 2026-04-17 10:42 | 15.46100 | -23.42503 | 19400 ft | 368 kts | 34° |
| 2026-04-17 10:42 | 15.48164 | -23.40923 | 19056 ft | 367 kts | 34° |
| 2026-04-17 10:42 | 15.50227 | -23.39342 | 18707 ft | 367 kts | 34° |
| 2026-04-17 10:43 | 15.52276 | -23.37772 | 18367 ft | 366 kts | 34° |
| 2026-04-17 10:43 | 15.54325 | -23.36202 | 17984 ft | 365 kts | 34° |
| 2026-04-17 10:43 | 15.56339 | -23.34658 | 17635 ft | 363 kts | 35° |
| 2026-04-17 10:43 | 15.58370 | -23.33102 | 17284 ft | 361 kts | 35° |
| 2026-04-17 10:44 | 15.60489 | -23.31738 | 16938 ft | 357 kts | 24° |
| 2026-04-17 10:44 | 15.62753 | -23.30704 | 16619 ft | 353 kts | 21° |
| 2026-04-17 10:44 | 15.65027 | -23.29743 | 16280 ft | 351 kts | 20° |
| 2026-04-17 10:44 | 15.67293 | -23.28796 | 15947 ft | 349 kts | 20° |
| 2026-04-17 10:45 | 15.69512 | -23.27860 | 15616 ft | 347 kts | 21° |
| 2026-04-17 10:45 | 15.71744 | -23.26905 | 15299 ft | 345 kts | 21° |
| 2026-04-17 10:45 | 15.73962 | -23.25946 | 14979 ft | 344 kts | 21° |
| 2026-04-17 10:45 | 15.76163 | -23.24987 | 14643 ft | 342 kts | 22° |
| 2026-04-17 10:46 | 15.78354 | -23.24028 | 14331 ft | 341 kts | 22° |
| 2026-04-17 10:46 | 15.80540 | -23.23067 | 13987 ft | 340 kts | 22° |
| 2026-04-17 10:46 | 15.82691 | -23.22121 | 13652 ft | 339 kts | 23° |
| 2026-04-17 10:46 | 15.84855 | -23.21167 | 13291 ft | 337 kts | 23° |
| 2026-04-17 10:47 | 15.87009 | -23.20217 | 12955 ft | 335 kts | 23° |
| 2026-04-17 10:47 | 15.89153 | -23.19271 | 12625 ft | 333 kts | 23° |
| 2026-04-17 10:47 | 15.91280 | -23.18333 | 12296 ft | 331 kts | 24° |
| 2026-04-17 10:47 | 15.93397 | -23.17398 | 11973 ft | 329 kts | 24° |
| 2026-04-17 10:48 | 15.95501 | -23.16469 | 11647 ft | 327 kts | 24° |
| 2026-04-17 10:48 | 15.97588 | -23.15548 | 11323 ft | 325 kts | 24° |
| 2026-04-17 10:48 | 15.99639 | -23.14641 | 11019 ft | 323 kts | 24° |
| 2026-04-17 10:48 | 16.01702 | -23.13730 | 10703 ft | 321 kts | 24° |
| 2026-04-17 10:49 | 16.03754 | -23.12823 | 10384 ft | 320 kts | 25° |
| 2026-04-17 10:49 | 16.05778 | -23.11928 | 10166 ft | 309 kts | 25° |
| 2026-04-17 10:49 | 16.07705 | -23.11077 | 10035 ft | 301 kts | 25° |
| 2026-04-17 10:49 | 16.09626 | -23.10227 | 9770 ft | 299 kts | 24° |
| 2026-04-17 10:50 | 16.11535 | -23.09383 | 9470 ft | 297 kts | 24° |
| 2026-04-17 10:50 | 16.13444 | -23.08538 | 9168 ft | 295 kts | 24° |
| 2026-04-17 10:50 | 16.15305 | -23.07713 | 8879 ft | 294 kts | 24° |
| 2026-04-17 10:50 | 16.17177 | -23.06885 | 8582 ft | 289 kts | 25° |
| 2026-04-17 10:51 | 16.19030 | -23.06064 | 8303 ft | 288 kts | 25° |
| 2026-04-17 10:51 | 16.20873 | -23.05249 | 8022 ft | 287 kts | 24° |
| 2026-04-17 10:51 | 16.22711 | -23.04434 | 7735 ft | 286 kts | 24° |
| 2026-04-17 10:51 | 16.24538 | -23.03624 | 7456 ft | 285 kts | 23° |
| 2026-04-17 10:52 | 16.26361 | -23.02816 | 7180 ft | 283 kts | 24° |
| 2026-04-17 10:52 | 16.28152 | -23.02023 | 6903 ft | 282 kts | 23° |
| 2026-04-17 10:52 | 16.29964 | -23.01219 | 6633 ft | 281 kts | 23° |
| 2026-04-17 10:52 | 16.31765 | -23.00421 | 6354 ft | 280 kts | 23° |
| 2026-04-17 10:53 | 16.33505 | -22.99649 | 6071 ft | 279 kts | 22° |
| 2026-04-17 10:53 | 16.35269 | -22.98867 | 5782 ft | 278 kts | 22° |
| 2026-04-17 10:53 | 16.37045 | -22.98078 | 5500 ft | 277 kts | 22° |
| 2026-04-17 10:53 | 16.38820 | -22.97291 | 5201 ft | 275 kts | 22° |
| 2026-04-17 10:54 | 16.40574 | -22.96512 | 4933 ft | 272 kts | 21° |
| 2026-04-17 10:54 | 16.42281 | -22.95753 | 4802 ft | 261 kts | 21° |
| 2026-04-17 10:54 | 16.43914 | -22.95030 | 4703 ft | 254 kts | 20° |
| 2026-04-17 10:54 | 16.45625 | -22.94653 | 4479 ft | 252 kts | 357° |
| 2026-04-17 10:55 | 16.47396 | -22.94674 | 4237 ft | 257 kts | 356° |
| 2026-04-17 10:55 | 16.49203 | -22.94716 | 3990 ft | 259 kts | 357° |
| 2026-04-17 10:55 | 16.51009 | -22.94738 | 3706 ft | 261 kts | 357° |
| 2026-04-17 10:55 | 16.52809 | -22.94755 | 3573 ft | 263 kts | 0° |
| 2026-04-17 10:56 | 16.54644 | -22.94765 | 3340 ft | 262 kts | 359° |
| 2026-04-17 10:56 | 16.56441 | -22.94774 | 3084 ft | 253 kts | 359° |
| 2026-04-17 10:56 | 16.58159 | -22.94786 | 2894 ft | 240 kts | 359° |
| 2026-04-17 10:56 | 16.59794 | -22.94798 | 2597 ft | 229 kts | 360° |
| 2026-04-17 10:57 | 16.61348 | -22.94812 | 2301 ft | 216 kts | 0° |
| 2026-04-17 10:57 | 16.62784 | -22.94819 | 2025 ft | 196 kts | 0° |
| 2026-04-17 10:57 | 16.64080 | -22.94828 | 1794 ft | 177 kts | 0° |
| 2026-04-17 10:57 | 16.65234 | -22.94836 | 1597 ft | 158 kts | 0° |
| 2026-04-17 10:58 | 16.66286 | -22.94844 | 1367 ft | 146 kts | 0° |
| 2026-04-17 10:58 | 16.67303 | -22.94850 | 1176 ft | 145 kts | 359° |
| 2026-04-17 10:58 | 16.68326 | -22.94859 | 975 ft | 146 kts | 0° |
| 2026-04-17 10:58 | 16.69355 | -22.94866 | 831 ft | 151 kts | 0° |
| 2026-04-17 10:59 | 16.70392 | -22.94875 | 639 ft | 148 kts | 1° |
| 2026-04-17 10:59 | 16.71420 | -22.94878 | 397 ft | 145 kts | 1° |
| 2026-04-17 10:59 | 16.72411 | -22.94885 | 212 ft | 141 kts | 2° |
| 2026-04-17 10:59 | 16.73319 | -22.94891 | 201 ft | 116 kts | 359° |
| 2026-04-17 11:00 | 16.74008 | -22.94896 | 186 ft | 82 kts | 360° |
| 2026-04-17 11:00 | 16.74455 | -22.94900 | 188 ft | 51 kts | 359° |
| 2026-04-17 11:00 | 16.74789 | -22.94903 | 204 ft | 44 kts | 360° |
| 2026-04-17 11:00 | 16.74988 | -22.94904 | 191 ft | 18 kts | 6° |
| 2026-04-17 11:01 | 16.75031 | -22.94808 | 200 ft | 18 kts | 116° |
| 2026-04-17 11:01 | 16.74958 | -22.94710 | 191 ft | 17 kts | 157° |
| 2026-04-17 11:01 | 16.74842 | -22.94703 | 202 ft | 18 kts | 178° |
| 2026-04-17 11:01 | 16.74698 | -22.94701 | 195 ft | 21 kts | 180° |
| 2026-04-17 11:02 | 16.74555 | -22.94701 | 190 ft | 21 kts | 180° |
| 2026-04-17 11:02 | 16.74393 | -22.94700 | 183 ft | 25 kts | 180° |
| 2026-04-17 11:02 | 16.74229 | -22.94699 | 184 ft | 23 kts | 179° |
| 2026-04-17 11:02 | 16.74071 | -22.94698 | 185 ft | 22 kts | 179° |
| 2026-04-17 11:03 | 16.73918 | -22.94697 | 202 ft | 22 kts | 179° |
| 2026-04-17 11:03 | 16.73769 | -22.94695 | 205 ft | 21 kts | 179° |
| 2026-04-17 11:03 | 16.73655 | -22.94692 | 206 ft | 13 kts | 168° |
| 2026-04-17 11:03 | 16.73606 | -22.94626 | 208 ft | 12 kts | 120° |
| 2026-04-17 11:04 | 16.73530 | -22.94596 | 199 ft | 13 kts | 179° |
| 2026-04-17 11:04 | 16.73433 | -22.94595 | 204 ft | 14 kts | 179° |
| 2026-04-17 11:04 | 16.73374 | -22.94586 | 199 ft | 7 kts | 142° |
| 2026-04-17 11:04 | 16.73365 | -22.94534 | 200 ft | 7 kts | 89° |
| 2026-04-17 11:05 | 16.73365 | -22.94508 | 200 ft | 3 kts | 90° |
| 2026-04-17 11:05 | 16.73365 | -22.94499 | 200 ft | 0 kts | 90° |